RJCT(METAR)
03/23 14:00
METAR RJCT 230500Z 30014G26KT 9999 FEW040 SCT230 04/M08 Q1008 RMK
1CU040 3CI230 A2979=
戻る
トップページへ戻る
IMOC Co,.Ltd.